LIBDEDDS

Guest
Details From LIBD - Bari Palese Macchie
To EDDS - Stuttgart
Flight Number -
Tags generated
Created
Modified
Stats Distance 559 nm / 1,036 km
Max Altitude 34,000 ft / 10,363 m
Waypoints 12
Social Downloads 4
Likes 0
Share VATSIM

Download

Looking for another format? Having issues loading an existing format? Contact us
Advertisement - Login to hide

Notes

Basic altitude profile: - Ascent Rate: 2500ft/min - Ascent Speed: 250kts - Cruise Altitude: 35000ft - Cruise Speed: 420kts - Descent Rate: 1500ft/min - Descent Speed: 250kts Options: - Use NATs: yes - Use PACOTS: yes - Use low airways: yes - Use high airways: yes

Route

LIBD RIVAM UL613 AKADO UP187 BZO UL12 KPT EDDS

ID Type Via Altitude (ft/m) Position (lat/lon) Dist (leg/tot) Name
O LIBD APT - 0 / 0 41.13787 / 16.75832 - / 0 nm Bari Palese Macchie
RIVAM FIX - 32,100 / 9,784 42.49917 / 15.77278 92 / 92 nm
DIPEP FIX UL613 (AWY-HI) 34,000 / 10,363 43.34167 / 14.49194 75 / 168 nm
LISKO FIX UL613 (AWY-HI) 34,000 / 10,363 43.57139 / 14.13222 20 / 189 nm
BUSER FIX UL613 (AWY-HI) 34,000 / 10,363 44.10667 / 13.64889 38 / 227 nm
AKADO FIX UL613 (AWY-HI) 34,000 / 10,363 45.33333 / 12.50000 88 / 316 nm
LAMPO FIX UP187 (AWY-HI) 34,000 / 10,363 46.10583 / 11.70139 57 / 373 nm
BZO NDB UP187 (AWY-HI) 34,000 / 10,363 46.46389 / 11.32222 26 / 400 nm BOLZANO NDB
ENOGO FIX UL12 (AWY-HI) 28,000 / 8,534 46.81333 / 11.06194 23 / 423 nm
OTSIS FIX UL12 (AWY-HI) 24,800 / 7,559 47.10074 / 10.84546 19 / 443 nm
KPT VOR UL12 (AWY-HI) 24,000 / 7,315 47.74583 / 10.34972 43 / 486 nm KEMPTEN VOR-DME
O EDDS APT - 0 / 0 48.68988 / 9.22196 72 / 559 nm Stuttgart

Altitude Profile

Advertisement - Login to hide

Weather


0- 5 10 15 20 25 30 35+ Temperature / °C

Clouds and Precipitation
Forecast for 2018-10-17 06:00 UTC. Updated 2 hours ago

Ground ~20,000 ft ~40,000 ft Winds

LIBD

Details ICAO LIBD (BRI)
Name Bari Karol Wojtyla Airport
Region Italy
Timezone Europe/Rome (UTC+2.0)
Stats Elevation 174 ft / 53 m (AMSL)
Location 41.137900° 16.758300°
Runways 1
Magnetic Variation 3.823° E

METAR

LIBD 170450Z VRB02KT CAVOK 14/13 Q1018

Decode

TAF

TAF LIBD 162300Z 1700/1724 12010KT 9999 SCT030 TEMPO 1705/1710 RA= TAF LIBP 162300Z 1700/1724 VRB04KT 6000 FEW010 BKN020 TEMPO 1700/1705 1200 RA BKN006

Decode

Departure Runways

ID Width Length Bearing (true/mag) Surface Threshold Overrun Markings Lighting
07 148 ft / 45 m 9,260 ft / 2,823 m 69.39° / 65.56° CONCRETE 1,220 ft / 372 m 0 ft / 0 m PREC-APP CENTERLINE EDGE THRESHOLD ALSF-II REIL-OMNI
25 148 ft / 45 m 9,260 ft / 2,823 m 249.41° / 245.58° CONCRETE 0 ft / 0 m 0 ft / 0 m PREC-APP CENTERLINE EDGE THRESHOLD SALS

EDDS

Details ICAO EDDS (STR)
Name Stuttgart
Region Germany - Civil
Timezone Europe/Berlin (UTC+2.0)
Stats Elevation 1,271 ft / 387 m (AMSL)
Location 48.689800° 9.221970°
Runways 1
Magnetic Variation 2.629° E

METAR

EDDS 170520Z 06001KT CAVOK 06/05 Q1019 NOSIG

Decode

TAF

TAF TAF EDDS 162300Z 1700/1724 VRB03KT CAVOK BECMG 1711/1713 04005KT BECMG 1717/1719 VRB03KT

Decode

Destination Runways

ID Width Length Bearing (true/mag) Surface Threshold Overrun Markings Lighting
07 148 ft / 45 m 10,985 ft / 3,348 m 74.04° / 71.41° CONCRETE 997 ft / 304 m 138 ft / 42 m PREC-APP CENTERLINE EDGE THRESHOLD ALSF-II REIL-OMNI
25 148 ft / 45 m 10,985 ft / 3,348 m 254.07° / 251.44° CONCRETE 0 ft / 0 m 144 ft / 44 m PREC-APP CENTERLINE EDGE THRESHOLD ALSF-II REIL-OMNI

Approach Navaids

Runway Type Ident Frequency Range Bearing (true/mag) Slope Elevation
07 OM OM - - 73.97° / 71.34 ° - 1,273 ft / 388 m (AMSL)
07 MM MM - - 73.97° / 71.34 ° - 1,273 ft / 388 m (AMSL)
07 LOC-ILS ISTE 110.90 MHz 18 nm / 33 km 73.99° / 71.36 ° - 1,181 ft / 360 m (AMSL)
07 GS ISTE 110.90 MHz 10 nm / 19 km 74.94° / 72.31 ° 3.00° 1,267 ft / 386 m (AMSL)
07 DME ISTE 115.45 MHz 18 nm / 33 km - - 1,332 ft / 406 m (AMSL)
25 MM MM - - 253.97° / 251.34 ° - 1,273 ft / 388 m (AMSL)
25 DME ISTW 115.45 MHz 18 nm / 33 km - - 1,332 ft / 406 m (AMSL)
25 LOC-ILS ISTW 109.90 MHz 18 nm / 33 km 253.95° / 251.32 ° - 1,267 ft / 386 m (AMSL)
25 GS ISTW 109.90 MHz 10 nm / 19 km 254.94° / 252.31 ° 3.00° 1,181 ft / 360 m (AMSL)
25 OM OM - - 253.97° / 251.34 ° - 1,273 ft / 388 m (AMSL)